createdAt,value
2017-10-13T00:00:51.784Z,13.25
2017-10-13T00:02:00.709Z,13.08
2017-10-13T00:03:09.540Z,13.25
2017-10-13T00:04:18.704Z,13.22
2017-10-13T00:05:27.537Z,13.25
2017-10-13T00:06:36.374Z,13.23
2017-10-13T00:07:45.201Z,13.22
2017-10-13T00:08:54.037Z,13.23
2017-10-13T00:10:02.877Z,13.2
2017-10-13T00:11:11.706Z,13.22
2017-10-13T00:12:20.539Z,13.23
2017-10-13T00:13:29.378Z,13.23
2017-10-13T00:14:38.208Z,13.26
2017-10-13T00:15:47.044Z,13.22
2017-10-13T00:16:55.896Z,13.26
2017-10-13T00:18:05.108Z,13.25
2017-10-13T00:19:14.016Z,13.28
2017-10-13T00:20:22.852Z,13.26
2017-10-13T00:21:31.686Z,13.28
2017-10-13T00:22:40.521Z,13.23
2017-10-13T00:23:49.413Z,13.22
2017-10-13T00:24:58.271Z,13.22
2017-10-13T00:26:07.441Z,13.23
2017-10-13T00:27:16.314Z,13.28
2017-10-13T00:28:25.498Z,13.28
2017-10-13T00:29:34.410Z,13.25
2017-10-13T00:30:44.058Z,13.19
2017-10-13T00:31:53.254Z,13.26
2017-10-13T00:33:02.196Z,13.23
2017-10-13T00:34:11.165Z,13.25
2017-10-13T00:35:20.004Z,13.26
2017-10-13T00:36:28.831Z,13.25
2017-10-13T00:37:37.664Z,13.23
2017-10-13T00:38:46.502Z,13.29
2017-10-13T00:39:55.730Z,13.23
2017-10-13T00:41:04.637Z,13.23
2017-10-13T00:42:14.219Z,13.26
2017-10-13T00:43:23.075Z,13.23
2017-10-13T00:44:31.937Z,13.25
2017-10-13T00:45:40.768Z,13.2
2017-10-13T00:46:49.644Z,13.28
2017-10-13T00:47:58.477Z,13.22
2017-10-13T00:49:07.312Z,13.2
2017-10-13T00:50:16.144Z,13.22
2017-10-13T00:51:24.977Z,13.2
2017-10-13T00:52:33.815Z,13.19
2017-10-13T00:53:42.644Z,13.19
2017-10-13T00:54:51.502Z,13.2
2017-10-13T00:56:00.332Z,13.15
2017-10-13T00:57:09.164Z,13.15
2017-10-13T00:58:17.998Z,13.15
2017-10-13T00:59:26.831Z,13.2
2017-10-13T01:00:35.662Z,13.11
2017-10-13T01:01:44.490Z,13.22
2017-10-13T01:02:53.327Z,13.08
2017-10-13T01:04:02.165Z,13.14
2017-10-13T01:05:10.996Z,13.11
2017-10-13T01:06:20.266Z,13.11
2017-10-13T01:07:29.198Z,13.14
2017-10-13T01:08:38.035Z,13.17
2017-10-13T01:09:46.869Z,13.23
2017-10-13T01:10:55.827Z,13.12
2017-10-13T01:12:04.664Z,13.15
2017-10-13T01:13:13.586Z,13.2
2017-10-13T01:14:22.416Z,13.26
2017-10-13T01:15:31.814Z,13.11
2017-10-13T01:16:41.778Z,13.19
2017-10-13T01:17:51.298Z,13.19
2017-10-13T01:19:00.994Z,13.17
2017-10-13T01:20:11.061Z,13.15
2017-10-13T01:21:20.584Z,13.15
2017-10-13T01:22:30.949Z,13.17
2017-10-13T01:23:40.777Z,13.2
2017-10-13T01:24:50.004Z,13.2
2017-10-13T01:25:59.412Z,13.17
2017-10-13T01:27:08.631Z,13.15
2017-10-13T01:28:17.869Z,13.19
2017-10-13T01:29:27.729Z,13.17
2017-10-13T01:30:36.794Z,13.2
2017-10-13T01:31:46.179Z,13.19
2017-10-13T01:32:55.804Z,13.2
2017-10-13T01:34:05.337Z,13.19
2017-10-13T01:35:15.191Z,13.2
2017-10-13T01:36:24.392Z,13.2
2017-10-13T01:37:34.374Z,13.2
2017-10-13T01:38:44.437Z,13.22
2017-10-13T01:39:53.891Z,13.25
2017-10-13T01:41:03.067Z,13.22
2017-10-13T01:42:12.363Z,13.28
2017-10-13T01:43:21.192Z,13.2
2017-10-13T01:44:30.027Z,13.28
2017-10-13T01:45:38.853Z,13.25
2017-10-13T01:46:47.686Z,13.22
2017-10-13T01:47:56.528Z,13.22
2017-10-13T01:49:05.541Z,13.32
2017-10-13T01:50:14.373Z,13.23
2017-10-13T01:51:23.206Z,13.08
2017-10-13T01:52:32.037Z,13.25
2017-10-13T01:53:40.871Z,13.17
2017-10-13T01:54:49.727Z,13.19
2017-10-13T01:55:59.272Z,13.17
2017-10-13T01:57:08.102Z,13.12
2017-10-13T01:58:16.946Z,13.2
2017-10-13T01:59:25.773Z,13.14
2017-10-13T02:00:34.609Z,13.14
2017-10-13T02:01:43.440Z,13.23
2017-10-13T02:02:52.526Z,13.2
2017-10-13T02:04:01.490Z,13.15
2017-10-13T02:05:10.369Z,13.2
2017-10-13T02:06:19.272Z,13.17
2017-10-13T02:07:28.144Z,13.19
2017-10-13T02:08:37.338Z,13.19
2017-10-13T02:09:46.277Z,13.26
2017-10-13T02:10:55.276Z,13.15
2017-10-13T02:12:04.106Z,13.19
2017-10-13T02:13:12.941Z,13.22
2017-10-13T02:14:21.775Z,13.12
2017-10-13T02:15:30.616Z,13.2
2017-10-13T02:16:39.454Z,13.17
2017-10-13T02:17:48.288Z,13.26
2017-10-13T02:18:57.121Z,13.12
2017-10-13T02:20:05.959Z,13.22
2017-10-13T02:21:14.793Z,13.19
2017-10-13T02:22:24.115Z,13.2
2017-10-13T02:23:33.114Z,13.19
2017-10-13T02:24:41.947Z,13.17
2017-10-13T02:25:50.837Z,13.19
2017-10-13T02:26:59.821Z,13.23
2017-10-13T02:28:09.069Z,13.15
2017-10-13T02:29:17.975Z,13.22
2017-10-13T02:30:26.807Z,13.2
2017-10-13T02:31:35.644Z,13.12
2017-10-13T02:32:44.493Z,13.19
2017-10-13T02:33:53.630Z,13.17
2017-10-13T02:35:02.462Z,13.2
2017-10-13T02:36:11.632Z,13.11
2017-10-13T02:37:20.824Z,13.15
2017-10-13T02:38:29.647Z,13.23
2017-10-13T02:39:39.703Z,13.2
2017-10-13T02:40:48.534Z,13.23
2017-10-13T02:41:57.370Z,13.19
2017-10-13T02:43:06.207Z,13.17
2017-10-13T02:44:15.045Z,13.14
2017-10-13T02:45:23.880Z,13.14
2017-10-13T02:46:32.845Z,13.19
2017-10-13T02:47:41.669Z,13.19
2017-10-13T02:48:50.591Z,13.19
2017-10-13T02:49:59.428Z,13.23
2017-10-13T02:51:08.873Z,13.2
2017-10-13T02:52:18.535Z,13.15
2017-10-13T02:53:27.448Z,13.2
2017-10-13T02:54:36.444Z,13.14
2017-10-13T02:55:45.285Z,13.15
2017-10-13T02:56:54.168Z,13.19
2017-10-13T02:58:03.071Z,13.17
2017-10-13T02:59:11.901Z,13.15
2017-10-13T03:00:20.821Z,13.12
2017-10-13T03:01:29.655Z,13.2
2017-10-13T03:02:38.492Z,13.08
2017-10-13T03:03:47.328Z,13.1
2017-10-13T03:04:56.161Z,13.11
2017-10-13T03:06:04.994Z,13.05
2017-10-13T03:07:13.874Z,13.12
2017-10-13T03:08:23.418Z,13.12
2017-10-13T03:09:33.262Z,13.17
2017-10-13T03:10:42.475Z,13.1
2017-10-13T03:11:51.409Z,13.07
2017-10-13T03:13:00.541Z,13.1
2017-10-13T03:14:09.753Z,13.05
2017-10-13T03:15:19.242Z,13.12
2017-10-13T03:16:28.085Z,13.1
2017-10-13T03:17:36.907Z,13.11
2017-10-13T03:18:45.749Z,13.08
2017-10-13T03:19:54.575Z,13.08
2017-10-13T03:21:03.996Z,13.14
2017-10-13T03:22:12.832Z,13.07
2017-10-13T03:23:21.754Z,13.07
2017-10-13T03:24:30.582Z,13.07
2017-10-13T03:25:39.568Z,13.04
2017-10-13T03:26:48.691Z,13.04
2017-10-13T03:27:57.658Z,13.1
2017-10-13T03:29:06.642Z,13.05
2017-10-13T03:30:15.477Z,13.01
2017-10-13T03:31:24.339Z,13.04
2017-10-13T03:32:33.172Z,13.05
2017-10-13T03:33:42.234Z,12.97
2017-10-13T03:34:51.065Z,12.97
2017-10-13T03:35:59.946Z,12.97
2017-10-13T03:37:09.317Z,12.95
2017-10-13T03:38:18.167Z,12.95
2017-10-13T03:39:27.031Z,12.89
2017-10-13T03:40:36.097Z,12.87
2017-10-13T03:41:45.357Z,12.89
2017-10-13T03:42:54.259Z,12.89
2017-10-13T03:44:03.261Z,12.92
2017-10-13T03:45:12.103Z,12.95
2017-10-13T03:46:20.957Z,12.93
2017-10-13T03:47:30.127Z,12.93
2017-10-13T03:48:39.063Z,12.93
2017-10-13T03:49:48.240Z,12.86
2017-10-13T03:50:57.288Z,12.86
2017-10-13T03:52:06.126Z,12.82
2017-10-13T03:53:15.764Z,12.85
2017-10-13T03:54:24.601Z,12.86
2017-10-13T03:55:33.731Z,12.83
2017-10-13T03:56:43.119Z,12.83
2017-10-13T03:57:52.458Z,12.82
2017-10-13T03:59:01.797Z,12.85
2017-10-13T04:00:10.783Z,12.79
2017-10-13T04:01:19.661Z,12.78
2017-10-13T04:02:28.631Z,12.74
2017-10-13T04:03:37.746Z,12.82
2017-10-13T04:04:46.585Z,12.79
2017-10-13T04:05:55.834Z,12.79
2017-10-13T04:07:04.982Z,12.79
2017-10-13T04:08:14.179Z,12.89
2017-10-13T04:09:23.016Z,12.78
2017-10-13T04:10:32.350Z,12.79
2017-10-13T04:11:41.367Z,12.74
2017-10-13T04:12:50.709Z,12.65
2017-10-13T04:13:59.648Z,12.71
2017-10-13T04:15:08.683Z,12.65
2017-10-13T04:16:18.585Z,12.74
2017-10-13T04:17:27.777Z,12.64
2017-10-13T04:18:37.528Z,12.72
2017-10-13T04:19:46.570Z,12.67
2017-10-13T04:20:55.895Z,12.65
2017-10-13T04:22:04.874Z,12.7
2017-10-13T04:23:14.043Z,12.71
2017-10-13T04:24:23.041Z,12.67
2017-10-13T04:25:32.206Z,12.68
2017-10-13T04:26:41.133Z,12.64
2017-10-13T04:27:50.148Z,12.65
2017-10-13T04:28:58.991Z,12.65
2017-10-13T04:30:08.219Z,12.7
2017-10-13T04:31:17.050Z,12.67
2017-10-13T04:32:26.039Z,12.56
2017-10-13T04:33:34.873Z,12.68
2017-10-13T04:34:44.411Z,12.65
2017-10-13T04:35:53.248Z,12.62
2017-10-13T04:37:02.200Z,12.67
2017-10-13T04:38:11.034Z,12.65
2017-10-13T04:39:20.048Z,12.68
2017-10-13T04:40:29.020Z,12.57
2017-10-13T04:41:37.943Z,12.56
2017-10-13T04:42:47.152Z,12.57
2017-10-13T04:43:55.992Z,12.54
2017-10-13T04:45:05.039Z,12.59
2017-10-13T04:46:13.956Z,12.57
2017-10-13T04:47:23.207Z,12.54
2017-10-13T04:48:32.044Z,12.56
2017-10-13T04:49:41.363Z,12.59
2017-10-13T04:50:50.199Z,12.56
2017-10-13T04:51:59.243Z,12.56
2017-10-13T04:53:08.086Z,12.54
2017-10-13T04:54:17.067Z,12.54
2017-10-13T04:55:25.970Z,12.52
2017-10-13T04:56:34.846Z,12.57
2017-10-13T04:57:43.930Z,12.52
2017-10-13T04:58:53.105Z,12.49
2017-10-13T05:00:02.026Z,12.47
2017-10-13T05:01:10.873Z,12.54
2017-10-13T05:02:20.334Z,12.47
2017-10-13T05:03:29.841Z,12.5
2017-10-13T05:04:38.847Z,12.59
2017-10-13T05:05:47.684Z,12.54
2017-10-13T05:06:56.761Z,12.47
2017-10-13T05:08:05.603Z,12.47
2017-10-13T05:09:15.151Z,12.47
2017-10-13T05:10:24.316Z,12.49
2017-10-13T05:11:33.242Z,12.46
2017-10-13T05:12:42.077Z,12.47
2017-10-13T05:13:51.029Z,12.45
2017-10-13T05:14:59.914Z,12.47
2017-10-13T05:16:08.791Z,12.49
2017-10-13T05:17:17.969Z,12.49
2017-10-13T05:18:26.809Z,12.42
2017-10-13T05:19:35.753Z,12.42
2017-10-13T05:20:45.081Z,12.46
2017-10-13T05:21:55.073Z,12.42
2017-10-13T05:23:04.047Z,12.41
2017-10-13T05:24:13.326Z,12.41
2017-10-13T05:25:22.168Z,12.41
2017-10-13T05:26:31.747Z,12.45
2017-10-13T05:27:40.585Z,12.41
2017-10-13T05:28:49.615Z,12.41
2017-10-13T05:29:58.456Z,12.42
2017-10-13T05:31:07.476Z,12.42
2017-10-13T05:32:16.324Z,12.39
2017-10-13T05:33:25.242Z,12.41
2017-10-13T05:34:34.586Z,12.39
2017-10-13T05:35:43.424Z,12.35
2017-10-13T05:36:52.455Z,12.29
2017-10-13T05:38:01.295Z,12.35
2017-10-13T05:39:10.233Z,12.32
2017-10-13T05:40:19.071Z,12.37
2017-10-13T05:41:28.344Z,12.35
2017-10-13T05:42:37.187Z,12.34
2017-10-13T05:43:46.765Z,12.34
2017-10-13T05:44:55.601Z,12.32
2017-10-13T05:46:04.563Z,12.34
2017-10-13T05:47:13.509Z,12.28
2017-10-13T05:48:22.423Z,12.32
2017-10-13T05:49:31.354Z,12.35
2017-10-13T05:50:40.196Z,12.24
2017-10-13T05:51:49.027Z,12.23
2017-10-13T05:52:57.871Z,12.24
2017-10-13T05:54:06.708Z,12.29
2017-10-13T05:55:15.546Z,12.32
2017-10-13T05:56:24.385Z,12.41
2017-10-13T05:57:33.220Z,12.42
2017-10-13T05:58:42.057Z,12.38
2017-10-13T05:59:50.902Z,12.38
2017-10-13T06:00:59.733Z,12.31
2017-10-13T06:02:08.573Z,12.32
2017-10-13T06:03:17.405Z,12.39
2017-10-13T06:04:26.250Z,12.39
2017-10-13T06:05:35.421Z,12.49
2017-10-13T06:06:44.262Z,12.38
2017-10-13T06:07:53.096Z,12.41
2017-10-13T06:09:01.939Z,12.5
2017-10-13T06:10:10.775Z,12.45
2017-10-13T06:11:19.607Z,12.49
2017-10-13T06:12:28.452Z,12.42
2017-10-13T06:13:37.287Z,12.38
2017-10-13T06:14:46.121Z,12.45
2017-10-13T06:15:54.961Z,12.42
2017-10-13T06:17:03.797Z,12.5
2017-10-13T06:18:12.634Z,12.5
2017-10-13T06:19:21.471Z,12.49
2017-10-13T06:20:30.309Z,12.45
2017-10-13T06:21:39.145Z,12.49
2017-10-13T06:22:47.980Z,12.5
2017-10-13T06:23:56.817Z,12.56
2017-10-13T06:25:05.653Z,12.53
2017-10-13T06:26:14.491Z,12.5
2017-10-13T06:27:23.325Z,12.59
2017-10-13T06:28:32.171Z,12.59
2017-10-13T06:29:41.000Z,12.62
2017-10-13T06:30:49.841Z,12.67
2017-10-13T06:31:58.679Z,12.68
2017-10-13T06:33:07.517Z,12.7
2017-10-13T06:34:16.359Z,12.72
2017-10-13T06:35:25.198Z,12.67
2017-10-13T06:36:34.035Z,12.71
2017-10-13T06:37:42.878Z,12.67
2017-10-13T06:38:51.713Z,12.67
2017-10-13T06:40:00.550Z,12.7
2017-10-13T06:41:09.397Z,12.7
2017-10-13T06:42:18.227Z,12.71
2017-10-13T06:43:27.059Z,12.72
2017-10-13T06:44:35.903Z,12.68
2017-10-13T06:45:44.741Z,12.7
2017-10-13T06:46:53.584Z,12.7
2017-10-13T06:48:02.419Z,12.7
2017-10-13T06:49:11.260Z,12.74
2017-10-13T06:50:20.099Z,12.75
2017-10-13T06:51:28.936Z,12.77
2017-10-13T06:52:37.767Z,12.72
2017-10-13T06:53:46.613Z,12.79
2017-10-13T06:54:55.454Z,12.9
2017-10-13T06:56:04.289Z,12.87
2017-10-13T06:57:13.127Z,12.86
2017-10-13T06:58:21.960Z,12.82
2017-10-13T06:59:30.799Z,12.87
2017-10-13T07:00:39.634Z,12.83
2017-10-13T07:01:48.480Z,12.83
2017-10-13T07:02:57.318Z,12.93
2017-10-13T07:04:06.155Z,12.89
2017-10-13T07:05:15.325Z,12.92
2017-10-13T07:06:24.164Z,12.97
2017-10-13T07:07:33.001Z,12.86
2017-10-13T07:08:41.845Z,12.86
2017-10-13T07:09:50.683Z,12.87
2017-10-13T07:10:59.520Z,12.93
2017-10-13T07:12:08.359Z,12.87
2017-10-13T07:13:17.203Z,12.97
2017-10-13T07:14:26.037Z,12.95
2017-10-13T07:15:34.879Z,13.03
2017-10-13T07:16:43.713Z,13.04
2017-10-13T07:17:52.551Z,13.05
2017-10-13T07:19:01.390Z,13.05
2017-10-13T07:20:10.230Z,13.07
2017-10-13T07:21:19.068Z,13.04
2017-10-13T07:22:27.905Z,13.07
2017-10-13T07:23:36.741Z,13.04
2017-10-13T07:24:45.582Z,13.07
2017-10-13T07:25:54.420Z,13.05
2017-10-13T07:27:03.255Z,13.11
2017-10-13T07:28:12.093Z,13.07
2017-10-13T07:29:20.932Z,13.19
2017-10-13T07:30:29.769Z,13.17
2017-10-13T07:31:38.611Z,13.17
2017-10-13T07:32:47.449Z,13.2
2017-10-13T07:33:56.288Z,13.22
2017-10-13T07:35:05.122Z,13.2
2017-10-13T07:36:13.962Z,13.23
2017-10-13T07:37:22.800Z,13.22
2017-10-13T07:38:31.635Z,13.36
2017-10-13T07:39:40.478Z,13.39
2017-10-13T07:40:49.318Z,13.39
2017-10-13T07:41:58.153Z,13.42
2017-10-13T07:43:06.986Z,13.45
2017-10-13T07:44:15.831Z,13.52
2017-10-13T07:45:24.664Z,13.49
2017-10-13T07:46:33.503Z,13.6
2017-10-13T07:47:42.343Z,13.63
2017-10-13T07:48:51.183Z,13.59
2017-10-13T07:50:00.025Z,13.64
2017-10-13T07:51:08.864Z,13.79
2017-10-13T07:52:17.701Z,13.81
2017-10-13T07:53:26.541Z,13.77
2017-10-13T07:54:35.378Z,13.87
2017-10-13T07:55:44.219Z,13.89
2017-10-13T07:56:53.401Z,13.87
2017-10-13T07:58:02.571Z,13.97
2017-10-13T07:59:11.416Z,13.99
2017-10-13T08:00:20.251Z,14
2017-10-13T08:01:29.088Z,13.97
2017-10-13T08:02:37.927Z,14.03
2017-10-13T08:03:46.770Z,14
2017-10-13T08:04:55.613Z,14.02
2017-10-13T08:06:04.447Z,13.97
2017-10-13T08:07:13.284Z,14.1
2017-10-13T08:08:22.120Z,14.1
2017-10-13T08:09:30.968Z,14.15
2017-10-13T08:10:39.806Z,14.07
2017-10-13T08:11:48.641Z,14.12
2017-10-13T08:12:57.483Z,14.06
2017-10-13T08:14:06.318Z,14.18
2017-10-13T08:15:15.159Z,14.14
2017-10-13T08:16:24.000Z,14.15
2017-10-13T08:17:32.844Z,14.21
2017-10-13T08:18:41.679Z,14.22
2017-10-13T08:19:50.517Z,14.24
2017-10-13T08:20:59.355Z,14.21
2017-10-13T08:22:08.533Z,14.24
2017-10-13T08:23:17.377Z,14.36
2017-10-13T08:24:26.555Z,14.36
2017-10-13T08:25:35.390Z,14.33
2017-10-13T08:26:44.226Z,14.36
2017-10-13T08:27:53.070Z,14.36
2017-10-13T08:29:01.906Z,14.35
2017-10-13T08:30:11.226Z,14.32
2017-10-13T08:31:20.051Z,14.32
2017-10-13T08:32:29.232Z,14.29
2017-10-13T08:33:38.078Z,14.33
2017-10-13T08:34:46.919Z,14.35
2017-10-13T08:35:55.758Z,14.35
2017-10-13T08:37:04.928Z,14.42
2017-10-13T08:38:13.769Z,14.36
2017-10-13T08:39:22.610Z,14.28
2017-10-13T08:40:31.449Z,14.42
2017-10-13T08:41:40.289Z,14.36
2017-10-13T08:42:49.124Z,14.42
2017-10-13T08:43:57.967Z,14.45
2017-10-13T08:45:06.811Z,14.45
2017-10-13T08:46:15.648Z,14.47
2017-10-13T08:47:24.822Z,14.54
2017-10-13T08:48:33.657Z,14.54
2017-10-13T08:49:42.497Z,14.61
2017-10-13T08:50:51.338Z,14.61
2017-10-13T08:52:00.185Z,14.6
2017-10-13T08:53:09.018Z,14.6
2017-10-13T08:54:17.861Z,14.61
2017-10-13T08:55:26.702Z,14.61
2017-10-13T08:56:35.583Z,14.65
2017-10-13T08:57:44.424Z,14.72
2017-10-13T08:58:53.270Z,14.7
2017-10-13T09:00:02.116Z,14.69
2017-10-13T09:01:10.955Z,14.81
2017-10-13T09:02:19.797Z,14.83
2017-10-13T09:03:28.635Z,14.96
2017-10-13T09:04:37.478Z,14.94
2017-10-13T09:05:46.318Z,15.02
2017-10-13T09:06:55.347Z,15.02
2017-10-13T09:08:04.614Z,15.06
2017-10-13T09:09:13.860Z,14.94
2017-10-13T09:10:22.705Z,15.02
2017-10-13T09:11:31.544Z,15.03
2017-10-13T09:12:40.732Z,15.02
2017-10-13T09:13:49.961Z,15.06
2017-10-13T09:14:58.861Z,15.02
2017-10-13T09:16:08.152Z,15.06
2017-10-13T09:17:17.515Z,15.03
2017-10-13T09:18:26.505Z,15.02
2017-10-13T09:19:35.648Z,15.03
2017-10-13T09:20:44.486Z,15.02
2017-10-13T09:21:53.321Z,15.03
2017-10-13T09:23:02.168Z,15.02
2017-10-13T09:24:11.097Z,14.99
2017-10-13T09:25:19.932Z,15.01
2017-10-13T09:26:28.779Z,14.98
2017-10-13T09:27:37.622Z,15.01
2017-10-13T09:28:46.460Z,15.07
2017-10-13T09:29:55.301Z,14.99
2017-10-13T09:31:04.487Z,15.02
2017-10-13T09:32:13.325Z,15.01
2017-10-13T09:33:22.222Z,15.02
2017-10-13T09:34:31.844Z,15.09
2017-10-13T09:35:40.684Z,15.02
2017-10-13T09:36:49.652Z,15.13
2017-10-13T09:37:58.604Z,15.16
2017-10-13T09:39:07.447Z,15.2
2017-10-13T09:40:16.294Z,15.16
2017-10-13T09:41:25.158Z,15.19
2017-10-13T09:42:34.010Z,15.34
2017-10-13T09:43:42.869Z,15.25
2017-10-13T09:44:51.711Z,15.39
2017-10-13T09:46:00.551Z,15.34
2017-10-13T09:47:09.457Z,15.36
2017-10-13T09:48:18.331Z,15.35
2017-10-13T09:49:27.445Z,15.35
2017-10-13T09:50:36.282Z,15.46
2017-10-13T09:51:45.125Z,15.53
2017-10-13T09:52:53.961Z,15.5
2017-10-13T09:54:02.800Z,15.46
2017-10-13T09:55:11.698Z,15.47
2017-10-13T09:56:20.587Z,15.54
2017-10-13T09:57:29.459Z,15.46
2017-10-13T09:58:38.554Z,15.56
2017-10-13T09:59:47.404Z,15.56
2017-10-13T10:00:56.243Z,15.59
2017-10-13T10:02:05.085Z,15.56
2017-10-13T10:03:14.108Z,15.57
2017-10-13T10:04:23.127Z,15.67
2017-10-13T10:05:31.965Z,15.69
2017-10-13T10:06:41.206Z,15.68
2017-10-13T10:07:50.421Z,15.71
2017-10-13T10:08:59.303Z,15.75
2017-10-13T10:10:08.433Z,15.86
2017-10-13T10:11:17.792Z,15.86
2017-10-13T10:12:26.637Z,15.97
2017-10-13T10:13:35.482Z,16.01
2017-10-13T10:14:44.317Z,15.96
2017-10-13T10:15:53.158Z,16.04
2017-10-13T10:17:02.070Z,16.17
2017-10-13T10:18:11.000Z,16.17
2017-10-13T10:19:19.912Z,16.12
2017-10-13T10:20:29.077Z,16.17
2017-10-13T10:21:37.989Z,16.05
2017-10-13T10:22:47.889Z,16.17
2017-10-13T10:23:56.739Z,16.17
2017-10-13T10:25:05.634Z,16.2
2017-10-13T10:26:14.557Z,16.25
2017-10-13T10:27:23.411Z,16.31
2017-10-13T10:28:32.358Z,16.41
2017-10-13T10:29:41.221Z,16.42
2017-10-13T10:30:50.081Z,16.45
2017-10-13T10:31:58.985Z,16.45
2017-10-13T10:33:07.844Z,16.48
2017-10-13T10:34:16.703Z,16.52
2017-10-13T10:35:25.565Z,16.61
2017-10-13T10:36:34.787Z,16.5
2017-10-13T10:37:43.662Z,16.57
2017-10-13T10:38:52.512Z,16.7
2017-10-13T10:40:01.379Z,16.68
2017-10-13T10:41:10.238Z,16.68
2017-10-13T10:42:19.096Z,16.73
2017-10-13T10:43:27.960Z,16.7
2017-10-13T10:44:36.833Z,16.75
2017-10-13T10:45:46.057Z,16.7
2017-10-13T10:46:54.907Z,16.73
2017-10-13T10:48:03.773Z,16.81
2017-10-13T10:49:12.631Z,16.75
2017-10-13T10:50:21.485Z,16.78
2017-10-13T10:51:30.349Z,16.75
2017-10-13T10:52:39.222Z,16.81
2017-10-13T10:53:48.082Z,16.76
2017-10-13T10:54:57.288Z,16.71
2017-10-13T10:56:06.145Z,16.7
2017-10-13T10:57:15.010Z,16.68
2017-10-13T10:58:23.887Z,16.66
2017-10-13T10:59:33.086Z,16.5
2017-10-13T11:00:42.056Z,16.58
2017-10-13T11:01:50.954Z,16.57
2017-10-13T11:02:59.801Z,16.43
2017-10-13T11:04:08.640Z,16.49
2017-10-13T11:05:17.482Z,16.5
2017-10-13T11:06:26.317Z,16.56
2017-10-13T11:07:35.157Z,16.56
2017-10-13T11:08:44.004Z,16.53
2017-10-13T11:09:53.057Z,16.45
2017-10-13T11:11:02.985Z,16.56
2017-10-13T11:12:12.839Z,16.49
2017-10-13T11:13:22.193Z,16.57
2017-10-13T11:14:31.436Z,16.5
2017-10-13T11:15:40.993Z,16.57
2017-10-13T11:16:49.956Z,16.56
2017-10-13T11:18:00.015Z,16.53
2017-10-13T11:19:09.681Z,16.58
2017-10-13T11:20:18.969Z,16.57
2017-10-13T11:21:28.086Z,16.53
2017-10-13T11:22:36.952Z,16.56
2017-10-13T11:23:45.862Z,16.56
2017-10-13T11:24:54.710Z,16.58
2017-10-13T11:26:04.090Z,16.68
2017-10-13T11:27:13.026Z,16.75
2017-10-13T11:28:21.953Z,16.63
2017-10-13T11:29:30.786Z,16.7
2017-10-13T11:30:39.624Z,16.68
2017-10-13T11:31:48.470Z,16.68
2017-10-13T11:32:57.311Z,16.68
2017-10-13T11:34:06.153Z,16.76
2017-10-13T11:35:14.993Z,16.73
2017-10-13T11:36:23.835Z,16.83
2017-10-13T11:37:34.458Z,16.78
2017-10-13T11:38:43.818Z,16.73
2017-10-13T11:39:52.665Z,16.79
2017-10-13T11:41:01.500Z,16.81
2017-10-13T11:42:10.341Z,16.75
2017-10-13T11:43:19.182Z,16.75
2017-10-13T11:44:28.026Z,16.67
2017-10-13T11:45:37.204Z,16.75
2017-10-13T11:46:46.044Z,16.73
2017-10-13T11:47:54.891Z,16.68
2017-10-13T11:49:03.742Z,16.7
2017-10-13T11:50:12.571Z,16.68
2017-10-13T11:51:21.409Z,16.75
2017-10-13T11:52:30.253Z,16.73
2017-10-13T11:53:39.095Z,16.61
2017-10-13T11:54:47.940Z,16.6
2017-10-13T11:55:56.778Z,16.53
2017-10-13T11:57:05.618Z,16.61
2017-10-13T11:58:14.457Z,16.58
2017-10-13T11:59:23.306Z,16.53
2017-10-13T12:00:32.494Z,16.58
2017-10-13T12:01:41.333Z,16.58
2017-10-13T12:02:50.509Z,16.6
2017-10-13T12:03:59.349Z,16.56
2017-10-13T12:05:08.193Z,16.5
2017-10-13T12:06:17.032Z,16.57
2017-10-13T12:07:25.880Z,16.45
2017-10-13T12:08:34.723Z,16.53
2017-10-13T12:09:43.556Z,16.49
2017-10-13T12:10:52.400Z,16.57
2017-10-13T12:12:01.235Z,16.61
2017-10-13T12:13:10.081Z,16.53
2017-10-13T12:14:18.920Z,16.49
2017-10-13T12:15:27.759Z,16.57
2017-10-13T12:16:36.596Z,16.52
2017-10-13T12:17:45.440Z,16.6
2017-10-13T12:18:54.281Z,16.56
2017-10-13T12:20:03.126Z,16.73
2017-10-13T12:21:12.303Z,16.71
2017-10-13T12:22:21.142Z,16.7
2017-10-13T12:23:29.987Z,16.75
2017-10-13T12:24:38.822Z,16.75
2017-10-13T12:25:47.658Z,16.71
2017-10-13T12:26:56.497Z,16.68
2017-10-13T12:28:05.344Z,16.7
2017-10-13T12:29:14.530Z,16.7
2017-10-13T12:30:23.366Z,16.73
2017-10-13T12:31:32.205Z,16.73
2017-10-13T12:32:41.044Z,16.68
2017-10-13T12:33:49.892Z,16.68
2017-10-13T12:34:59.067Z,16.7
2017-10-13T12:36:07.906Z,16.66
2017-10-13T12:37:16.743Z,16.67
2017-10-13T12:38:25.955Z,16.71
2017-10-13T12:39:34.799Z,16.73
2017-10-13T12:40:43.645Z,16.75
2017-10-13T12:41:52.488Z,16.75
2017-10-13T12:43:01.326Z,16.81
2017-10-13T12:44:10.168Z,16.83
2017-10-13T12:45:19.011Z,16.83
2017-10-13T12:46:28.194Z,16.89
2017-10-13T12:47:37.039Z,16.83
2017-10-13T12:48:45.883Z,16.91
2017-10-13T12:49:54.722Z,16.86
2017-10-13T12:51:03.571Z,16.86
2017-10-13T12:52:12.414Z,16.89
2017-10-13T12:53:21.255Z,16.82
2017-10-13T12:54:30.099Z,16.85
2017-10-13T12:55:38.942Z,16.85
2017-10-13T12:56:47.782Z,16.78
2017-10-13T12:57:56.619Z,16.86
2017-10-13T12:59:05.460Z,16.85
2017-10-13T13:00:14.304Z,16.79
2017-10-13T13:01:23.142Z,16.82
2017-10-13T13:02:31.990Z,16.83
2017-10-13T13:03:40.827Z,16.85
2017-10-13T13:04:49.667Z,16.88
2017-10-13T13:05:58.510Z,16.83
2017-10-13T13:07:07.343Z,16.88
2017-10-13T13:08:16.188Z,16.86
2017-10-13T13:09:25.029Z,16.86
2017-10-13T13:10:33.870Z,16.86
2017-10-13T13:11:42.703Z,16.89
2017-10-13T13:12:51.549Z,16.89
2017-10-13T13:14:00.392Z,16.89
2017-10-13T13:15:09.232Z,16.94
2017-10-13T13:16:18.435Z,16.97
2017-10-13T13:17:27.273Z,16.94
2017-10-13T13:18:36.121Z,16.96
2017-10-13T13:19:44.967Z,16.97
2017-10-13T13:20:53.798Z,16.98
2017-10-13T13:22:02.640Z,16.94
2017-10-13T13:23:11.480Z,16.96
2017-10-13T13:24:20.319Z,16.94
2017-10-13T13:25:29.161Z,16.96
2017-10-13T13:26:38.003Z,16.94
2017-10-13T13:27:47.178Z,17.01
2017-10-13T13:28:56.020Z,16.96
2017-10-13T13:30:04.860Z,16.96
2017-10-13T13:31:13.711Z,16.97
2017-10-13T13:32:22.539Z,16.98
2017-10-13T13:33:31.381Z,16.97
2017-10-13T13:34:40.226Z,17.01
2017-10-13T13:35:49.067Z,16.98
2017-10-13T13:36:57.908Z,17.06
2017-10-13T13:38:06.749Z,16.94
2017-10-13T13:39:15.589Z,16.98
2017-10-13T13:40:24.429Z,16.96
2017-10-13T13:41:33.273Z,16.98
2017-10-13T13:42:42.115Z,17.07
2017-10-13T13:43:50.957Z,17
2017-10-13T13:44:59.795Z,17.14
2017-10-13T13:46:08.633Z,17.11
2017-10-13T13:47:17.475Z,17.07
2017-10-13T13:48:26.319Z,17.12
2017-10-13T13:49:35.156Z,17.15
2017-10-13T13:50:43.995Z,17.15
2017-10-13T13:51:52.838Z,17.15
2017-10-13T13:53:01.681Z,17.15
2017-10-13T13:54:10.525Z,17.16
2017-10-13T13:55:19.361Z,17.15
2017-10-13T13:56:28.210Z,17.15
2017-10-13T13:57:37.042Z,17.18
2017-10-13T13:58:45.887Z,17.14
2017-10-13T13:59:54.728Z,17.15
2017-10-13T14:01:03.568Z,17.06
2017-10-13T14:02:12.406Z,17.11
2017-10-13T14:03:21.248Z,17.11
2017-10-13T14:04:30.093Z,17
2017-10-13T14:05:38.936Z,17.07
2017-10-13T14:06:47.777Z,17.01
2017-10-13T14:07:56.614Z,16.96
2017-10-13T14:09:05.454Z,16.97
2017-10-13T14:10:14.302Z,16.97
2017-10-13T14:11:23.141Z,16.98
2017-10-13T14:12:31.983Z,16.96
2017-10-13T14:13:40.821Z,17
2017-10-13T14:14:49.661Z,17.01
2017-10-13T14:15:58.843Z,16.98
2017-10-13T14:17:07.686Z,17.01
2017-10-13T14:18:16.533Z,16.97
2017-10-13T14:19:25.371Z,16.94
2017-10-13T14:20:34.212Z,16.96
2017-10-13T14:21:43.049Z,16.93
2017-10-13T14:22:51.890Z,16.96
2017-10-13T14:24:00.731Z,16.96
2017-10-13T14:25:09.580Z,16.97
2017-10-13T14:26:18.415Z,16.98
2017-10-13T14:27:27.259Z,16.97
2017-10-13T14:28:36.105Z,17
2017-10-13T14:29:44.948Z,16.97
2017-10-13T14:30:53.791Z,16.94
2017-10-13T14:32:02.626Z,16.98
2017-10-13T14:33:11.470Z,16.98
2017-10-13T14:34:20.308Z,16.98
2017-10-13T14:35:29.153Z,16.97
2017-10-13T14:36:37.992Z,16.93
2017-10-13T14:37:47.170Z,17.03
2017-10-13T14:38:56.016Z,16.96
2017-10-13T14:40:04.857Z,16.98
2017-10-13T14:41:13.698Z,16.89
2017-10-13T14:42:22.537Z,16.89
2017-10-13T14:43:31.378Z,16.97
2017-10-13T14:44:40.219Z,16.88
2017-10-13T14:45:49.063Z,16.94
2017-10-13T14:46:57.900Z,16.93
2017-10-13T14:48:06.742Z,16.96
2017-10-13T14:49:15.933Z,16.89
2017-10-13T14:50:24.766Z,16.89
2017-10-13T14:51:33.608Z,16.89